sensor_id;sensor_type;location;lat;lon;timestamp;P1;durP1;ratioP1;P2;durP2;ratioP2
19347;SDS011;9810;52.480;9.806;2023-04-24T00:02:14;1.90;;;0.57;;
19347;SDS011;9810;52.480;9.806;2023-04-24T00:04:43;1.30;;;0.53;;
19347;SDS011;9810;52.480;9.806;2023-04-24T00:07:10;1.33;;;0.70;;
19347;SDS011;9810;52.480;9.806;2023-04-24T00:09:41;0.50;;;0.50;;
19347;SDS011;9810;52.480;9.806;2023-04-24T00:12:09;0.77;;;0.63;;
19347;SDS011;9810;52.480;9.806;2023-04-24T00:14:36;0.80;;;0.60;;
19347;SDS011;9810;52.480;9.806;2023-04-24T00:17:04;3.30;;;0.97;;
19347;SDS011;9810;52.480;9.806;2023-04-24T00:19:31;0.50;;;0.50;;
19347;SDS011;9810;52.480;9.806;2023-04-24T00:22:00;0.77;;;0.53;;
19347;SDS011;9810;52.480;9.806;2023-04-24T00:24:28;1.43;;;0.60;;
19347;SDS011;9810;52.480;9.806;2023-04-24T00:26:56;2.23;;;0.50;;
19347;SDS011;9810;52.480;9.806;2023-04-24T00:29:24;0.93;;;0.50;;
19347;SDS011;9810;52.480;9.806;2023-04-24T00:31:55;0.50;;;0.50;;
19347;SDS011;9810;52.480;9.806;2023-04-24T00:34:22;1.27;;;0.60;;
19347;SDS011;9810;52.480;9.806;2023-04-24T00:36:50;0.50;;;0.50;;
19347;SDS011;9810;52.480;9.806;2023-04-24T00:39:19;2.00;;;0.60;;
19347;SDS011;9810;52.480;9.806;2023-04-24T00:41:48;0.60;;;0.60;;
19347;SDS011;9810;52.480;9.806;2023-04-24T00:44:16;2.70;;;0.50;;
19347;SDS011;9810;52.480;9.806;2023-04-24T00:46:43;2.00;;;0.80;;
19347;SDS011;9810;52.480;9.806;2023-04-24T00:49:10;1.37;;;0.70;;
19347;SDS011;9810;52.480;9.806;2023-04-24T00:51:39;1.97;;;0.50;;
19347;SDS011;9810;52.480;9.806;2023-04-24T00:54:10;1.37;;;0.57;;
19347;SDS011;9810;52.480;9.806;2023-04-24T00:56:39;0.40;;;0.40;;
19347;SDS011;9810;52.480;9.806;2023-04-24T00:59:08;0.93;;;0.40;;
19347;SDS011;9810;52.480;9.806;2023-04-24T01:01:35;2.17;;;0.50;;
19347;SDS011;9810;52.480;9.806;2023-04-24T01:04:03;0.83;;;0.50;;
19347;SDS011;9810;52.480;9.806;2023-04-24T01:06:32;1.60;;;0.53;;
19347;SDS011;9810;52.480;9.806;2023-04-24T01:09:00;0.50;;;0.50;;
19347;SDS011;9810;52.480;9.806;2023-04-24T01:11:27;0.70;;;0.70;;
19347;SDS011;9810;52.480;9.806;2023-04-24T01:13:58;0.50;;;0.50;;
19347;SDS011;9810;52.480;9.806;2023-04-24T01:16:26;2.73;;;0.70;;
19347;SDS011;9810;52.480;9.806;2023-04-24T01:18:53;1.17;;;0.60;;
19347;SDS011;9810;52.480;9.806;2023-04-24T01:21:21;0.40;;;0.40;;
19347;SDS011;9810;52.480;9.806;2023-04-24T01:23:54;0.40;;;0.40;;
19347;SDS011;9810;52.480;9.806;2023-04-24T01:26:22;2.20;;;0.70;;
19347;SDS011;9810;52.480;9.806;2023-04-24T01:28:50;1.90;;;0.63;;
19347;SDS011;9810;52.480;9.806;2023-04-24T01:31:18;1.10;;;0.73;;
19347;SDS011;9810;52.480;9.806;2023-04-24T01:33:46;1.43;;;0.63;;
19347;SDS011;9810;52.480;9.806;2023-04-24T01:36:14;0.50;;;0.50;;
19347;SDS011;9810;52.480;9.806;2023-04-24T01:38:42;0.40;;;0.40;;
19347;SDS011;9810;52.480;9.806;2023-04-24T01:41:12;0.50;;;0.50;;
19347;SDS011;9810;52.480;9.806;2023-04-24T01:43:43;1.37;;;0.57;;
19347;SDS011;9810;52.480;9.806;2023-04-24T01:46:10;0.50;;;0.50;;
19347;SDS011;9810;52.480;9.806;2023-04-24T01:48:37;1.20;;;0.70;;
19347;SDS011;9810;52.480;9.806;2023-04-24T01:51:05;0.50;;;0.50;;
19347;SDS011;9810;52.480;9.806;2023-04-24T01:53:32;0.97;;;0.53;;
19347;SDS011;9810;52.480;9.806;2023-04-24T01:56:00;0.50;;;0.50;;
19347;SDS011;9810;52.480;9.806;2023-04-24T01:58:29;0.60;;;0.60;;
19347;SDS011;9810;52.480;9.806;2023-04-24T02:00:57;0.70;;;0.60;;
19347;SDS011;9810;52.480;9.806;2023-04-24T02:03:25;1.97;;;0.60;;
19347;SDS011;9810;52.480;9.806;2023-04-24T02:05:52;1.03;;;0.57;;
19347;SDS011;9810;52.480;9.806;2023-04-24T02:08:20;1.13;;;0.63;;
19347;SDS011;9810;52.480;9.806;2023-04-24T02:10:47;0.97;;;0.70;;
19347;SDS011;9810;52.480;9.806;2023-04-24T02:13:15;0.57;;;0.57;;
19347;SDS011;9810;52.480;9.806;2023-04-24T02:15:44;0.80;;;0.50;;
19347;SDS011;9810;52.480;9.806;2023-04-24T02:18:11;0.70;;;0.47;;
19347;SDS011;9810;52.480;9.806;2023-04-24T02:20:38;0.40;;;0.40;;
19347;SDS011;9810;52.480;9.806;2023-04-24T02:23:06;2.43;;;0.73;;
19347;SDS011;9810;52.480;9.806;2023-04-24T02:25:33;0.47;;;0.47;;
19347;SDS011;9810;52.480;9.806;2023-04-24T02:28:01;0.90;;;0.60;;
19347;SDS011;9810;52.480;9.806;2023-04-24T02:30:28;0.63;;;0.40;;
19347;SDS011;9810;52.480;9.806;2023-04-24T02:32:57;0.53;;;0.53;;
19347;SDS011;9810;52.480;9.806;2023-04-24T02:35:25;0.73;;;0.50;;
19347;SDS011;9810;52.480;9.806;2023-04-24T02:37:52;1.23;;;1.13;;
19347;SDS011;9810;52.480;9.806;2023-04-24T02:40:19;0.53;;;0.50;;
19347;SDS011;9810;52.480;9.806;2023-04-24T02:42:47;0.70;;;0.70;;
19347;SDS011;9810;52.480;9.806;2023-04-24T02:45:14;0.57;;;0.50;;
19347;SDS011;9810;52.480;9.806;2023-04-24T02:47:42;1.60;;;0.53;;
19347;SDS011;9810;52.480;9.806;2023-04-24T02:50:11;2.03;;;0.53;;
19347;SDS011;9810;52.480;9.806;2023-04-24T02:52:38;0.50;;;0.50;;
19347;SDS011;9810;52.480;9.806;2023-04-24T02:55:07;0.40;;;0.40;;
19347;SDS011;9810;52.480;9.806;2023-04-24T02:57:35;0.60;;;0.60;;
19347;SDS011;9810;52.480;9.806;2023-04-24T03:00:02;0.87;;;0.60;;
19347;SDS011;9810;52.480;9.806;2023-04-24T03:02:32;1.30;;;0.70;;
19347;SDS011;9810;52.480;9.806;2023-04-24T03:05:00;0.63;;;0.40;;
19347;SDS011;9810;52.480;9.806;2023-04-24T03:07:31;1.93;;;0.60;;
19347;SDS011;9810;52.480;9.806;2023-04-24T03:09:58;0.40;;;0.40;;
19347;SDS011;9810;52.480;9.806;2023-04-24T03:12:25;1.50;;;0.60;;
19347;SDS011;9810;52.480;9.806;2023-04-24T03:14:53;0.67;;;0.50;;
19347;SDS011;9810;52.480;9.806;2023-04-24T03:17:20;0.60;;;0.50;;
19347;SDS011;9810;52.480;9.806;2023-04-24T03:19:47;0.50;;;0.50;;
19347;SDS011;9810;52.480;9.806;2023-04-24T03:22:15;0.70;;;0.40;;
19347;SDS011;9810;52.480;9.806;2023-04-24T03:24:44;0.70;;;0.70;;
19347;SDS011;9810;52.480;9.806;2023-04-24T03:27:11;0.40;;;0.40;;
19347;SDS011;9810;52.480;9.806;2023-04-24T03:29:41;2.10;;;0.40;;
19347;SDS011;9810;52.480;9.806;2023-04-24T03:32:08;0.50;;;0.50;;
19347;SDS011;9810;52.480;9.806;2023-04-24T03:34:35;0.60;;;0.50;;
19347;SDS011;9810;52.480;9.806;2023-04-24T03:37:03;1.07;;;0.53;;
19347;SDS011;9810;52.480;9.806;2023-04-24T03:39:30;1.07;;;0.60;;
19347;SDS011;9810;52.480;9.806;2023-04-24T03:41:59;0.63;;;0.63;;
19347;SDS011;9810;52.480;9.806;2023-04-24T03:44:28;0.60;;;0.60;;
19347;SDS011;9810;52.480;9.806;2023-04-24T03:46:57;0.50;;;0.50;;
19347;SDS011;9810;52.480;9.806;2023-04-24T03:49:27;0.40;;;0.40;;
19347;SDS011;9810;52.480;9.806;2023-04-24T03:51:55;1.43;;;0.70;;
19347;SDS011;9810;52.480;9.806;2023-04-24T03:54:22;1.43;;;0.30;;
19347;SDS011;9810;52.480;9.806;2023-04-24T03:56:50;1.27;;;0.90;;
19347;SDS011;9810;52.480;9.806;2023-04-24T03:59:18;1.73;;;0.47;;
19347;SDS011;9810;52.480;9.806;2023-04-24T04:01:46;0.40;;;0.40;;
19347;SDS011;9810;52.480;9.806;2023-04-24T04:04:13;1.80;;;0.40;;
19347;SDS011;9810;52.480;9.806;2023-04-24T04:06:41;0.30;;;0.30;;
19347;SDS011;9810;52.480;9.806;2023-04-24T04:09:12;1.23;;;0.70;;
19347;SDS011;9810;52.480;9.806;2023-04-24T04:11:39;0.40;;;0.40;;
19347;SDS011;9810;52.480;9.806;2023-04-24T04:14:06;0.60;;;0.43;;
19347;SDS011;9810;52.480;9.806;2023-04-24T04:16:36;0.57;;;0.50;;
19347;SDS011;9810;52.480;9.806;2023-04-24T04:19:03;0.70;;;0.70;;
19347;SDS011;9810;52.480;9.806;2023-04-24T04:21:31;1.83;;;0.50;;
19347;SDS011;9810;52.480;9.806;2023-04-24T04:23:58;0.40;;;0.40;;
19347;SDS011;9810;52.480;9.806;2023-04-24T04:26:26;0.50;;;0.47;;
19347;SDS011;9810;52.480;9.806;2023-04-24T04:28:53;0.43;;;0.43;;
19347;SDS011;9810;52.480;9.806;2023-04-24T04:31:20;0.70;;;0.40;;
19347;SDS011;9810;52.480;9.806;2023-04-24T04:33:49;0.57;;;0.50;;
19347;SDS011;9810;52.480;9.806;2023-04-24T04:36:17;4.03;;;0.60;;
19347;SDS011;9810;52.480;9.806;2023-04-24T04:38:44;0.43;;;0.40;;
19347;SDS011;9810;52.480;9.806;2023-04-24T04:41:11;0.40;;;0.40;;
19347;SDS011;9810;52.480;9.806;2023-04-24T04:43:41;0.50;;;0.50;;
19347;SDS011;9810;52.480;9.806;2023-04-24T04:46:09;1.40;;;0.47;;
19347;SDS011;9810;52.480;9.806;2023-04-24T04:48:36;1.20;;;0.53;;
19347;SDS011;9810;52.480;9.806;2023-04-24T04:51:06;1.20;;;0.60;;
19347;SDS011;9810;52.480;9.806;2023-04-24T04:53:34;0.40;;;0.40;;
19347;SDS011;9810;52.480;9.806;2023-04-24T04:56:01;0.53;;;0.40;;
19347;SDS011;9810;52.480;9.806;2023-04-24T04:58:28;0.87;;;0.50;;
19347;SDS011;9810;52.480;9.806;2023-04-24T05:00:56;4.20;;;0.70;;
19347;SDS011;9810;52.480;9.806;2023-04-24T05:03:24;1.27;;;0.47;;
19347;SDS011;9810;52.480;9.806;2023-04-24T05:05:51;0.53;;;0.53;;
19347;SDS011;9810;52.480;9.806;2023-04-24T05:08:20;0.40;;;0.40;;
19347;SDS011;9810;52.480;9.806;2023-04-24T05:10:48;0.83;;;0.40;;
19347;SDS011;9810;52.480;9.806;2023-04-24T05:13:15;0.40;;;0.40;;
19347;SDS011;9810;52.480;9.806;2023-04-24T05:15:42;2.27;;;0.30;;
19347;SDS011;9810;52.480;9.806;2023-04-24T05:18:10;0.70;;;0.40;;
19347;SDS011;9810;52.480;9.806;2023-04-24T05:20:37;0.43;;;0.43;;
19347;SDS011;9810;52.480;9.806;2023-04-24T05:23:04;0.43;;;0.43;;
19347;SDS011;9810;52.480;9.806;2023-04-24T05:25:33;0.50;;;0.50;;
19347;SDS011;9810;52.480;9.806;2023-04-24T05:28:01;1.83;;;0.50;;
19347;SDS011;9810;52.480;9.806;2023-04-24T05:30:28;0.60;;;0.50;;
19347;SDS011;9810;52.480;9.806;2023-04-24T05:32:55;0.90;;;0.40;;
19347;SDS011;9810;52.480;9.806;2023-04-24T05:35:23;1.83;;;0.50;;
19347;SDS011;9810;52.480;9.806;2023-04-24T05:37:52;1.47;;;0.60;;
19347;SDS011;9810;52.480;9.806;2023-04-24T05:40:20;0.47;;;0.47;;
19347;SDS011;9810;52.480;9.806;2023-04-24T05:42:49;0.40;;;0.40;;
19347;SDS011;9810;52.480;9.806;2023-04-24T05:45:16;0.67;;;0.33;;
19347;SDS011;9810;52.480;9.806;2023-04-24T05:47:44;2.27;;;0.50;;
19347;SDS011;9810;52.480;9.806;2023-04-24T05:50:12;0.50;;;0.50;;
19347;SDS011;9810;52.480;9.806;2023-04-24T05:52:41;0.40;;;0.37;;
19347;SDS011;9810;52.480;9.806;2023-04-24T05:55:08;0.70;;;0.70;;
19347;SDS011;9810;52.480;9.806;2023-04-24T05:57:35;1.20;;;0.57;;
19347;SDS011;9810;52.480;9.806;2023-04-24T06:00:06;1.87;;;0.40;;
19347;SDS011;9810;52.480;9.806;2023-04-24T06:02:33;0.43;;;0.43;;
19347;SDS011;9810;52.480;9.806;2023-04-24T06:05:00;1.37;;;1.00;;
19347;SDS011;9810;52.480;9.806;2023-04-24T06:07:29;1.33;;;0.63;;
19347;SDS011;9810;52.480;9.806;2023-04-24T06:09:57;0.60;;;0.60;;
19347;SDS011;9810;52.480;9.806;2023-04-24T06:12:24;1.30;;;0.80;;
19347;SDS011;9810;52.480;9.806;2023-04-24T06:14:52;1.00;;;0.73;;
19347;SDS011;9810;52.480;9.806;2023-04-24T06:17:22;0.70;;;0.63;;
19347;SDS011;9810;52.480;9.806;2023-04-24T06:19:52;2.30;;;0.70;;
19347;SDS011;9810;52.480;9.806;2023-04-24T06:22:19;0.83;;;0.83;;
19347;SDS011;9810;52.480;9.806;2023-04-24T06:24:47;0.53;;;0.53;;
19347;SDS011;9810;52.480;9.806;2023-04-24T06:27:14;3.33;;;0.60;;
19347;SDS011;9810;52.480;9.806;2023-04-24T06:29:42;2.80;;;0.60;;
19347;SDS011;9810;52.480;9.806;2023-04-24T06:32:09;1.17;;;0.80;;
19347;SDS011;9810;52.480;9.806;2023-04-24T06:34:38;0.63;;;0.60;;
19347;SDS011;9810;52.480;9.806;2023-04-24T06:37:05;1.70;;;0.80;;
19347;SDS011;9810;52.480;9.806;2023-04-24T06:39:33;1.50;;;0.90;;
19347;SDS011;9810;52.480;9.806;2023-04-24T06:42:00;1.03;;;1.03;;
19347;SDS011;9810;52.480;9.806;2023-04-24T06:44:28;1.73;;;1.10;;
19347;SDS011;9810;52.480;9.806;2023-04-24T06:46:55;2.60;;;1.13;;
19347;SDS011;9810;52.480;9.806;2023-04-24T06:49:22;1.17;;;0.97;;
19347;SDS011;9810;52.480;9.806;2023-04-24T06:51:52;1.83;;;1.10;;
19347;SDS011;9810;52.480;9.806;2023-04-24T06:54:19;1.43;;;1.33;;
19347;SDS011;9810;52.480;9.806;2023-04-24T06:56:46;3.30;;;2.67;;
19347;SDS011;9810;52.480;9.806;2023-04-24T06:59:16;1.70;;;1.50;;
19347;SDS011;9810;52.480;9.806;2023-04-24T07:01:44;2.17;;;1.80;;
19347;SDS011;9810;52.480;9.806;2023-04-24T07:04:11;4.67;;;2.20;;
19347;SDS011;9810;52.480;9.806;2023-04-24T07:06:38;3.40;;;2.03;;
19347;SDS011;9810;52.480;9.806;2023-04-24T07:09:07;6.27;;;2.37;;
19347;SDS011;9810;52.480;9.806;2023-04-24T07:11:35;3.00;;;2.40;;
19347;SDS011;9810;52.480;9.806;2023-04-24T07:14:04;4.27;;;2.40;;
19347;SDS011;9810;52.480;9.806;2023-04-24T07:16:31;2.47;;;2.10;;
19347;SDS011;9810;52.480;9.806;2023-04-24T07:18:59;5.17;;;2.47;;
19347;SDS011;9810;52.480;9.806;2023-04-24T07:21:26;2.20;;;2.00;;
19347;SDS011;9810;52.480;9.806;2023-04-24T07:23:53;4.87;;;2.70;;
19347;SDS011;9810;52.480;9.806;2023-04-24T07:26:22;3.17;;;2.87;;
19347;SDS011;9810;52.480;9.806;2023-04-24T07:28:50;3.17;;;2.60;;
19347;SDS011;9810;52.480;9.806;2023-04-24T07:31:18;7.27;;;3.33;;
19347;SDS011;9810;52.480;9.806;2023-04-24T07:33:46;3.80;;;3.20;;
19347;SDS011;9810;52.480;9.806;2023-04-24T07:36:13;5.37;;;3.27;;
19347;SDS011;9810;52.480;9.806;2023-04-24T07:38:44;5.17;;;3.80;;
19347;SDS011;9810;52.480;9.806;2023-04-24T07:41:11;4.07;;;3.37;;
19347;SDS011;9810;52.480;9.806;2023-04-24T07:43:40;4.53;;;3.47;;
19347;SDS011;9810;52.480;9.806;2023-04-24T07:46:07;6.23;;;3.63;;
19347;SDS011;9810;52.480;9.806;2023-04-24T07:48:36;5.53;;;3.73;;
19347;SDS011;9810;52.480;9.806;2023-04-24T07:51:03;4.87;;;3.50;;
19347;SDS011;9810;52.480;9.806;2023-04-24T07:53:30;3.57;;;3.27;;
19347;SDS011;9810;52.480;9.806;2023-04-24T07:55:58;4.10;;;3.37;;
19347;SDS011;9810;52.480;9.806;2023-04-24T07:58:25;5.43;;;4.13;;
19347;SDS011;9810;52.480;9.806;2023-04-24T08:00:54;4.83;;;3.30;;
19347;SDS011;9810;52.480;9.806;2023-04-24T08:03:22;4.37;;;3.80;;
19347;SDS011;9810;52.480;9.806;2023-04-24T08:05:57;6.13;;;4.60;;
19347;SDS011;9810;52.480;9.806;2023-04-24T08:08:24;11.20;;;4.63;;
19347;SDS011;9810;52.480;9.806;2023-04-24T08:10:52;5.93;;;4.97;;
19347;SDS011;9810;52.480;9.806;2023-04-24T08:13:19;6.33;;;4.20;;
19347;SDS011;9810;52.480;9.806;2023-04-24T08:15:47;6.03;;;4.83;;
19347;SDS011;9810;52.480;9.806;2023-04-24T08:18:16;8.67;;;4.53;;
19347;SDS011;9810;52.480;9.806;2023-04-24T08:20:43;7.47;;;5.60;;
19347;SDS011;9810;52.480;9.806;2023-04-24T08:23:11;6.97;;;5.93;;
19347;SDS011;9810;52.480;9.806;2023-04-24T08:25:39;6.13;;;5.53;;
19347;SDS011;9810;52.480;9.806;2023-04-24T08:28:06;7.80;;;5.40;;
19347;SDS011;9810;52.480;9.806;2023-04-24T08:30:36;7.93;;;5.20;;
19347;SDS011;9810;52.480;9.806;2023-04-24T08:33:03;8.53;;;5.57;;
19347;SDS011;9810;52.480;9.806;2023-04-24T08:35:32;9.73;;;5.80;;
19347;SDS011;9810;52.480;9.806;2023-04-24T08:37:59;8.03;;;5.50;;
19347;SDS011;9810;52.480;9.806;2023-04-24T08:40:27;9.83;;;6.23;;
19347;SDS011;9810;52.480;9.806;2023-04-24T08:42:55;7.10;;;5.80;;
19347;SDS011;9810;52.480;9.806;2023-04-24T08:45:23;7.90;;;6.03;;
19347;SDS011;9810;52.480;9.806;2023-04-24T08:47:51;6.80;;;5.97;;
19347;SDS011;9810;52.480;9.806;2023-04-24T08:50:20;6.20;;;5.20;;
19347;SDS011;9810;52.480;9.806;2023-04-24T08:52:50;7.97;;;5.73;;
19347;SDS011;9810;52.480;9.806;2023-04-24T08:55:19;12.00;;;5.67;;
19347;SDS011;9810;52.480;9.806;2023-04-24T08:57:50;6.60;;;5.13;;
19347;SDS011;9810;52.480;9.806;2023-04-24T09:00:20;7.70;;;5.77;;
19347;SDS011;9810;52.480;9.806;2023-04-24T09:02:48;6.67;;;4.93;;
19347;SDS011;9810;52.480;9.806;2023-04-24T09:05:19;5.07;;;4.43;;
19347;SDS011;9810;52.480;9.806;2023-04-24T09:07:52;6.37;;;4.30;;
19347;SDS011;9810;52.480;9.806;2023-04-24T09:10:21;6.17;;;4.27;;
19347;SDS011;9810;52.480;9.806;2023-04-24T09:12:50;5.27;;;4.27;;
19347;SDS011;9810;52.480;9.806;2023-04-24T09:15:18;4.97;;;4.20;;
19347;SDS011;9810;52.480;9.806;2023-04-24T09:17:46;5.60;;;4.37;;
19347;SDS011;9810;52.480;9.806;2023-04-24T09:20:14;7.03;;;4.13;;
19347;SDS011;9810;52.480;9.806;2023-04-24T09:22:42;5.33;;;3.90;;
19347;SDS011;9810;52.480;9.806;2023-04-24T09:25:13;4.27;;;3.63;;
19347;SDS011;9810;52.480;9.806;2023-04-24T09:27:41;6.70;;;4.33;;
19347;SDS011;9810;52.480;9.806;2023-04-24T09:30:11;4.50;;;3.63;;
19347;SDS011;9810;52.480;9.806;2023-04-24T09:32:40;4.83;;;3.63;;
19347;SDS011;9810;52.480;9.806;2023-04-24T09:35:08;4.47;;;3.57;;
19347;SDS011;9810;52.480;9.806;2023-04-24T09:37:38;5.30;;;3.70;;
19347;SDS011;9810;52.480;9.806;2023-04-24T09:40:07;5.00;;;3.97;;
19347;SDS011;9810;52.480;9.806;2023-04-24T09:42:43;4.90;;;3.13;;
19347;SDS011;9810;52.480;9.806;2023-04-24T09:45:12;3.77;;;3.20;;
19347;SDS011;9810;52.480;9.806;2023-04-24T09:47:40;4.83;;;3.50;;
19347;SDS011;9810;52.480;9.806;2023-04-24T09:50:11;4.43;;;2.83;;
19347;SDS011;9810;52.480;9.806;2023-04-24T09:52:41;3.43;;;2.70;;
19347;SDS011;9810;52.480;9.806;2023-04-24T09:55:19;3.83;;;3.40;;
19347;SDS011;9810;52.480;9.806;2023-04-24T09:57:47;3.90;;;3.30;;
19347;SDS011;9810;52.480;9.806;2023-04-24T10:00:21;4.63;;;2.67;;
19347;SDS011;9810;52.480;9.806;2023-04-24T10:02:50;7.27;;;2.70;;
19347;SDS011;9810;52.480;9.806;2023-04-24T10:05:22;3.77;;;2.83;;
19347;SDS011;9810;52.480;9.806;2023-04-24T10:07:51;3.07;;;2.63;;
19347;SDS011;9810;52.480;9.806;2023-04-24T10:10:23;2.90;;;2.60;;
19347;SDS011;9810;52.480;9.806;2023-04-24T10:12:51;5.70;;;3.20;;
19347;SDS011;9810;52.480;9.806;2023-04-24T10:15:19;4.20;;;2.87;;
19347;SDS011;9810;52.480;9.806;2023-04-24T10:17:47;3.13;;;2.37;;
19347;SDS011;9810;52.480;9.806;2023-04-24T10:20:18;4.47;;;2.83;;
19347;SDS011;9810;52.480;9.806;2023-04-24T10:22:47;3.13;;;2.70;;
19347;SDS011;9810;52.480;9.806;2023-04-24T10:25:16;3.08;;;2.78;;
19347;SDS011;9810;52.480;9.806;2023-04-24T10:27:48;3.97;;;2.97;;
19347;SDS011;9810;52.480;9.806;2023-04-24T10:30:17;3.20;;;2.90;;
19347;SDS011;9810;52.480;9.806;2023-04-24T10:32:46;4.03;;;2.50;;
19347;SDS011;9810;52.480;9.806;2023-04-24T10:35:14;3.20;;;2.30;;
19347;SDS011;9810;52.480;9.806;2023-04-24T10:37:42;4.20;;;2.97;;
19347;SDS011;9810;52.480;9.806;2023-04-24T10:40:17;8.23;;;2.40;;
19347;SDS011;9810;52.480;9.806;2023-04-24T10:43:07;2.53;;;2.10;;
19347;SDS011;9810;52.480;9.806;2023-04-24T10:45:40;3.43;;;2.60;;
19347;SDS011;9810;52.480;9.806;2023-04-24T10:48:41;2.53;;;2.33;;
19347;SDS011;9810;52.480;9.806;2023-04-24T10:51:26;3.20;;;2.03;;
19347;SDS011;9810;52.480;9.806;2023-04-24T10:54:26;3.15;;;2.85;;
19347;SDS011;9810;52.480;9.806;2023-04-24T11:00:24;2.57;;;1.90;;
19347;SDS011;9810;52.480;9.806;2023-04-24T11:02:53;3.50;;;1.67;;
19347;SDS011;9810;52.480;9.806;2023-04-24T11:05:22;2.30;;;2.10;;
19347;SDS011;9810;52.480;9.806;2023-04-24T11:08:42;2.37;;;1.80;;
19347;SDS011;9810;52.480;9.806;2023-04-24T11:15:15;1.70;;;1.60;;
19347;SDS011;9810;52.480;9.806;2023-04-24T11:24:50;1.63;;;1.37;;
19347;SDS011;9810;52.480;9.806;2023-04-24T11:27:51;1.90;;;1.80;;
19347;SDS011;9810;52.480;9.806;2023-04-24T11:30:45;3.03;;;1.80;;
19347;SDS011;9810;52.480;9.806;2023-04-24T11:33:26;3.57;;;1.57;;
19347;SDS011;9810;52.480;9.806;2023-04-24T11:36:07;1.67;;;1.40;;
19347;SDS011;9810;52.480;9.806;2023-04-24T11:38:35;1.83;;;1.73;;
19347;SDS011;9810;52.480;9.806;2023-04-24T11:41:04;2.20;;;1.80;;
19347;SDS011;9810;52.480;9.806;2023-04-24T11:43:32;1.93;;;1.77;;
19347;SDS011;9810;52.480;9.806;2023-04-24T11:46:01;1.20;;;1.10;;
19347;SDS011;9810;52.480;9.806;2023-04-24T11:48:28;1.30;;;1.20;;
19347;SDS011;9810;52.480;9.806;2023-04-24T11:51:09;2.43;;;1.40;;
19347;SDS011;9810;52.480;9.806;2023-04-24T11:53:39;2.23;;;1.20;;
19347;SDS011;9810;52.480;9.806;2023-04-24T11:56:09;1.27;;;0.90;;
19347;SDS011;9810;52.480;9.806;2023-04-24T11:58:37;1.93;;;1.20;;
19347;SDS011;9810;52.480;9.806;2023-04-24T12:01:05;1.90;;;1.23;;
19347;SDS011;9810;52.480;9.806;2023-04-24T12:03:33;1.30;;;1.20;;
19347;SDS011;9810;52.480;9.806;2023-04-24T12:06:06;1.00;;;0.90;;
19347;SDS011;9810;52.480;9.806;2023-04-24T12:08:34;2.80;;;0.70;;
19347;SDS011;9810;52.480;9.806;2023-04-24T12:11:02;1.10;;;1.00;;
19347;SDS011;9810;52.480;9.806;2023-04-24T12:13:32;2.73;;;0.93;;
19347;SDS011;9810;52.480;9.806;2023-04-24T12:16:02;1.57;;;0.70;;
19347;SDS011;9810;52.480;9.806;2023-04-24T12:18:32;4.07;;;0.90;;
19347;SDS011;9810;52.480;9.806;2023-04-24T12:21:15;1.13;;;1.00;;
19347;SDS011;9810;52.480;9.806;2023-04-24T12:23:45;1.13;;;0.90;;
19347;SDS011;9810;52.480;9.806;2023-04-24T12:26:15;1.90;;;1.10;;
19347;SDS011;9810;52.480;9.806;2023-04-24T12:28:46;1.60;;;1.13;;
19347;SDS011;9810;52.480;9.806;2023-04-24T12:31:15;0.70;;;0.70;;
19347;SDS011;9810;52.480;9.806;2023-04-24T12:33:43;0.97;;;0.73;;
19347;SDS011;9810;52.480;9.806;2023-04-24T12:36:10;0.90;;;0.90;;
19347;SDS011;9810;52.480;9.806;2023-04-24T12:38:38;0.90;;;0.90;;
19347;SDS011;9810;52.480;9.806;2023-04-24T12:41:07;2.33;;;1.20;;
19347;SDS011;9810;52.480;9.806;2023-04-24T12:43:35;1.60;;;0.90;;
19347;SDS011;9810;52.480;9.806;2023-04-24T12:46:05;2.20;;;0.80;;
19347;SDS011;9810;52.480;9.806;2023-04-24T12:48:32;2.20;;;0.80;;
19347;SDS011;9810;52.480;9.806;2023-04-24T12:50:59;1.00;;;1.00;;
19347;SDS011;9810;52.480;9.806;2023-04-24T12:53:27;1.53;;;1.10;;
19347;SDS011;9810;52.480;9.806;2023-04-24T12:55:56;1.33;;;1.23;;
19347;SDS011;9810;52.480;9.806;2023-04-24T12:58:23;1.30;;;1.20;;
19347;SDS011;9810;52.480;9.806;2023-04-24T13:00:51;1.20;;;1.10;;
19347;SDS011;9810;52.480;9.806;2023-04-24T13:03:23;2.33;;;1.20;;
19347;SDS011;9810;52.480;9.806;2023-04-24T13:05:51;1.17;;;1.17;;
19347;SDS011;9810;52.480;9.806;2023-04-24T13:08:18;0.90;;;0.90;;
19347;SDS011;9810;52.480;9.806;2023-04-24T13:10:46;2.37;;;1.30;;
19347;SDS011;9810;52.480;9.806;2023-04-24T13:13:13;0.80;;;0.80;;
19347;SDS011;9810;52.480;9.806;2023-04-24T13:15:41;1.10;;;1.10;;
19347;SDS011;9810;52.480;9.806;2023-04-24T13:18:08;1.20;;;1.10;;
19347;SDS011;9810;52.480;9.806;2023-04-24T13:20:36;0.90;;;0.90;;
19347;SDS011;9810;52.480;9.806;2023-04-24T13:23:05;1.47;;;1.37;;
19347;SDS011;9810;52.480;9.806;2023-04-24T13:25:34;2.33;;;1.07;;
19347;SDS011;9810;52.480;9.806;2023-04-24T13:28:04;1.27;;;1.17;;
19347;SDS011;9810;52.480;9.806;2023-04-24T13:30:32;1.27;;;1.27;;
19347;SDS011;9810;52.480;9.806;2023-04-24T13:32:59;2.80;;;1.50;;
19347;SDS011;9810;52.480;9.806;2023-04-24T13:35:27;1.23;;;1.23;;
19347;SDS011;9810;52.480;9.806;2023-04-24T13:38:01;1.33;;;1.23;;
19347;SDS011;9810;52.480;9.806;2023-04-24T13:40:34;1.30;;;1.20;;
19347;SDS011;9810;52.480;9.806;2023-04-24T13:43:01;1.67;;;1.40;;
19347;SDS011;9810;52.480;9.806;2023-04-24T13:45:30;1.40;;;1.30;;
19347;SDS011;9810;52.480;9.806;2023-04-24T13:47:58;1.30;;;1.20;;
19347;SDS011;9810;52.480;9.806;2023-04-24T13:50:28;1.50;;;1.40;;
19347;SDS011;9810;52.480;9.806;2023-04-24T13:52:58;0.70;;;0.70;;
19347;SDS011;9810;52.480;9.806;2023-04-24T13:55:28;0.53;;;0.53;;
19347;SDS011;9810;52.480;9.806;2023-04-24T13:57:56;1.30;;;0.63;;
19347;SDS011;9810;52.480;9.806;2023-04-24T14:00:23;0.90;;;0.43;;
19347;SDS011;9810;52.480;9.806;2023-04-24T14:02:50;0.60;;;0.60;;
19347;SDS011;9810;52.480;9.806;2023-04-24T14:05:18;0.60;;;0.57;;
19347;SDS011;9810;52.480;9.806;2023-04-24T14:07:47;0.53;;;0.50;;
19347;SDS011;9810;52.480;9.806;2023-04-24T14:10:14;0.47;;;0.47;;
19347;SDS011;9810;52.480;9.806;2023-04-24T14:12:43;0.70;;;0.70;;
19347;SDS011;9810;52.480;9.806;2023-04-24T14:15:10;2.63;;;0.80;;
19347;SDS011;9810;52.480;9.806;2023-04-24T14:17:40;2.30;;;0.80;;
19347;SDS011;9810;52.480;9.806;2023-04-24T14:20:07;0.70;;;0.70;;
19347;SDS011;9810;52.480;9.806;2023-04-24T14:22:35;2.17;;;1.13;;
19347;SDS011;9810;52.480;9.806;2023-04-24T14:25:03;1.50;;;1.00;;
19347;SDS011;9810;52.480;9.806;2023-04-24T14:27:34;1.97;;;1.10;;
19347;SDS011;9810;52.480;9.806;2023-04-24T14:30:08;1.47;;;1.00;;
19347;SDS011;9810;52.480;9.806;2023-04-24T14:32:35;1.00;;;0.80;;
19347;SDS011;9810;52.480;9.806;2023-04-24T14:35:05;2.47;;;1.20;;
19347;SDS011;9810;52.480;9.806;2023-04-24T14:37:33;2.80;;;0.97;;
19347;SDS011;9810;52.480;9.806;2023-04-24T14:40:01;1.63;;;1.20;;
19347;SDS011;9810;52.480;9.806;2023-04-24T14:42:30;1.30;;;1.20;;
19347;SDS011;9810;52.480;9.806;2023-04-24T14:45:01;1.23;;;1.13;;
19347;SDS011;9810;52.480;9.806;2023-04-24T14:47:31;3.35;;;1.92;;
19347;SDS011;9810;52.480;9.806;2023-04-24T14:49:59;1.57;;;1.47;;
19347;SDS011;9810;52.480;9.806;2023-04-24T14:52:29;2.00;;;1.80;;
19347;SDS011;9810;52.480;9.806;2023-04-24T14:54:57;3.20;;;2.10;;
19347;SDS011;9810;52.480;9.806;2023-04-24T14:57:24;3.37;;;2.60;;
19347;SDS011;9810;52.480;9.806;2023-04-24T14:59:52;4.30;;;2.73;;
19347;SDS011;9810;52.480;9.806;2023-04-24T15:02:19;2.30;;;1.80;;
19347;SDS011;9810;52.480;9.806;2023-04-24T15:04:48;10.20;;;2.30;;
19347;SDS011;9810;52.480;9.806;2023-04-24T15:07:15;2.13;;;1.93;;
19347;SDS011;9810;52.480;9.806;2023-04-24T15:09:43;2.33;;;1.87;;
19347;SDS011;9810;52.480;9.806;2023-04-24T15:12:12;2.67;;;1.97;;
19347;SDS011;9810;52.480;9.806;2023-04-24T15:14:39;2.93;;;2.03;;
19347;SDS011;9810;52.480;9.806;2023-04-24T15:17:08;3.20;;;1.93;;
19347;SDS011;9810;52.480;9.806;2023-04-24T15:19:36;3.23;;;2.37;;
19347;SDS011;9810;52.480;9.806;2023-04-24T15:22:05;3.23;;;2.47;;
19347;SDS011;9810;52.480;9.806;2023-04-24T15:24:32;3.80;;;2.50;;
19347;SDS011;9810;52.480;9.806;2023-04-24T15:27:00;4.80;;;2.80;;